Time;durP1;ratioP1;P1;durP2;ratioP2;P2;SDS_P1;SDS_P2;PMS_P1;PMS_P2;Temp;Humidity;BMP_temperature;BMP_pressure;BME280_temperature;BME280_humidity;BME280_pressure;Samples;Min_cycle;Max_cycle;Signal;HPM_P1;HPM_P2
2020/12/13 00:01:53;;;;;;;120.45;51.90;;;;;;;2.76;77.83;98909.34;5098746;28;20058;-46
2020/12/13 00:04:19;;;;;;;109.07;44.63;;;;;;;2.77;78.10;98913.63;5099392;28;20444;-46
2020/12/13 00:06:45;;;;;;;117.72;48.67;;;;;;;2.75;78.04;98914.50;5099454;28;20048;-46
2020/12/13 00:09:11;;;;;;;105.07;43.72;;;;;;;2.76;78.14;98914.50;5099396;28;20059;-46
2020/12/13 00:11:37;;;;;;;104.35;45.55;;;;;;;2.78;78.13;98909.31;5099707;28;20048;-46
2020/12/13 00:14:03;;;;;;;100.25;43.65;;;;;;;2.84;78.02;98914.44;5098719;28;20109;-45
2020/12/13 00:16:29;;;;;;;106.07;43.80;;;;;;;2.81;77.87;98917.91;5099276;28;20052;-46
2020/12/13 00:18:54;;;;;;;101.15;43.88;;;;;;;2.83;77.95;98923.06;5099534;28;20043;-46
2020/12/13 00:21:26;;;;;;;94.97;41.65;;;;;;;2.80;77.89;98917.91;5099259;28;20064;-46
2020/12/13 00:23:53;;;;;;;105.20;47.80;;;;;;;2.78;78.17;98922.25;5099509;28;20048;-46
2020/12/13 00:26:19;;;;;;;106.72;48.05;;;;;;;2.76;78.23;98924.84;5098532;28;20052;-46
2020/12/13 00:28:45;;;;;;;108.88;47.78;;;;;;;2.80;78.09;98923.09;5081478;28;20051;-46
2020/12/13 00:31:15;;;;;;;100.60;45.30;;;;;;;2.84;78.21;98919.59;5099052;28;20044;-46
2020/12/13 00:33:41;;;;;;;101.05;45.50;;;;;;;2.79;78.27;98919.66;5098417;28;20113;-46
2020/12/13 00:36:06;;;;;;;91.35;40.53;;;;;;;2.84;78.29;98919.59;5099307;28;20409;-46
2020/12/13 00:38:32;;;;;;;97.32;43.60;;;;;;;2.88;77.95;98928.19;5098980;28;20049;-45
2020/12/13 00:40:58;;;;;;;97.70;40.78;;;;;;;2.88;78.15;98928.19;5099096;28;20058;-46
2020/12/13 00:43:24;;;;;;;106.00;47.90;;;;;;;2.92;78.07;98927.28;5099047;28;20345;-46
2020/12/13 00:45:49;;;;;;;142.27;64.38;;;;;;;2.95;77.88;98924.69;5098165;28;20052;-46
2020/12/13 00:48:15;;;;;;;107.28;49.70;;;;;;;2.92;77.80;98937.63;5081091;28;20326;-46
2020/12/13 00:50:41;;;;;;;95.65;43.95;;;;;;;2.91;77.93;98934.19;5098950;28;20144;-46
2020/12/13 00:53:08;;;;;;;95.15;41.58;;;;;;;2.93;77.62;98935.06;5098012;28;20137;-45
2020/12/13 00:55:35;;;;;;;96.35;42.35;;;;;;;2.93;77.73;98940.22;5097613;28;20048;-46
2020/12/13 00:58:03;;;;;;;102.43;43.13;;;;;;;2.95;77.68;98941.06;5098502;28;20391;-46
2020/12/13 01:00:29;;;;;;;104.65;46.10;;;;;;;2.94;77.58;98941.09;5098570;28;20066;-46
2020/12/13 01:02:58;;;;;;;99.05;42.67;;;;;;;2.92;77.78;98937.63;5098235;28;20129;-46
2020/12/13 01:05:24;;;;;;;93.00;43.30;;;;;;;2.92;77.81;98943.66;5098413;28;20077;-46
2020/12/13 01:07:51;;;;;;;97.25;42.67;;;;;;;2.93;77.64;98944.56;5098397;28;20036;-46
2020/12/13 01:10:18;;;;;;;89.88;39.08;;;;;;;2.93;77.73;98936.78;5098580;28;20075;-46
2020/12/13 01:12:43;;;;;;;86.50;38.55;;;;;;;2.91;77.81;98941.09;5097777;28;20044;-46
2020/12/13 01:15:09;;;;;;;97.43;40.65;;;;;;;2.87;77.90;98940.28;5098510;28;20416;-46
2020/12/13 01:17:35;;;;;;;91.45;39.90;;;;;;;2.92;77.43;98941.06;5098165;28;20118;-46
2020/12/13 01:20:02;;;;;;;89.07;41.13;;;;;;;2.85;77.64;98941.16;5097507;28;20059;-46
2020/12/13 01:22:27;;;;;;;104.55;41.83;;;;;;;2.93;77.37;98942.81;5098028;28;20321;-46
2020/12/13 01:24:53;;;;;;;90.47;38.47;;;;;;;2.90;77.35;98942.00;5098284;28;20058;-46
2020/12/13 01:27:19;;;;;;;93.78;43.83;;;;;;;2.89;77.64;98940.25;5097875;28;20044;-45
2020/12/13 01:29:45;;;;;;;89.22;41.45;;;;;;;2.80;77.70;98943.78;5097219;28;20056;-46
2020/12/13 01:32:10;;;;;;;88.93;40.40;;;;;;;2.82;78.02;98947.19;5097813;28;20348;-46
2020/12/13 01:34:36;;;;;;;94.90;39.85;;;;;;;2.83;77.92;98950.63;5098088;28;20072;-46
2020/12/13 01:37:02;;;;;;;80.43;36.65;;;;;;;2.81;77.80;98948.94;5097939;28;20135;-46
2020/12/13 01:39:28;;;;;;;83.70;37.22;;;;;;;2.81;78.01;98959.28;5097727;28;20450;-46
2020/12/13 01:41:58;;;;;;;89.55;38.03;;;;;;;2.85;77.80;98965.28;5097711;28;20044;-46
2020/12/13 01:44:29;;;;;;;97.05;39.15;;;;;;;2.86;77.67;98959.25;5097859;28;20056;-46
2020/12/13 01:46:56;;;;;;;94.40;41.03;;;;;;;2.85;77.56;98956.66;5097589;28;20470;-46
2020/12/13 01:49:21;;;;;;;90.85;39.03;;;;;;;2.80;78.02;98965.31;5096641;28;20060;-46
2020/12/13 01:54:14;;;;;;;91.78;38.30;;;;;;;2.84;77.73;98963.56;5079832;28;20454;-46
2020/12/13 01:56:55;;;;;;;87.70;38.75;;;;;;;2.88;77.75;98960.09;5097357;28;20157;-46
2020/12/13 01:59:21;;;;;;;84.25;37.10;;;;;;;2.84;77.81;98965.31;5097300;28;20048;-45
2020/12/13 02:01:49;;;;;;;87.05;37.50;;;;;;;2.90;77.74;98967.84;5079922;28;20043;-46
2020/12/13 02:04:19;;;;;;;88.32;37.00;;;;;;;2.91;77.52;98966.97;5097081;28;20159;-46
2020/12/13 02:06:45;;;;;;;90.43;36.92;;;;;;;2.89;77.45;98966.13;5097297;28;20055;-46
2020/12/13 02:09:10;;;;;;;93.35;38.85;;;;;;;2.89;77.48;98971.28;5079526;28;20044;-46
2020/12/13 02:11:36;;;;;;;85.05;35.63;;;;;;;2.88;77.58;98972.16;5079466;28;20402;-46
2020/12/13 02:14:04;;;;;;;87.13;35.88;;;;;;;2.85;77.87;98972.19;5096238;28;20436;-46
2020/12/13 02:16:30;;;;;;;84.40;36.05;;;;;;;2.87;77.85;98973.06;5096979;28;20123;-46
2020/12/13 02:18:55;;;;;;;90.70;39.53;;;;;;;2.64;78.63;98966.31;5097203;28;20062;-46
2020/12/13 02:21:21;;;;;;;90.80;40.08;;;;;;;2.64;78.56;98968.88;5097204;28;20048;-46
2020/12/13 02:23:47;;;;;;;95.03;41.25;;;;;;;2.52;79.30;98974.97;5096546;28;20061;-45
2020/12/13 02:26:13;;;;;;;97.07;41.92;;;;;;;2.52;79.27;98972.41;5096530;28;20047;-46
2020/12/13 02:28:39;;;;;;;89.80;39.33;;;;;;;2.61;79.44;98974.06;5097063;28;20062;-46
2020/12/13 02:31:05;;;;;;;86.60;38.08;;;;;;;2.75;78.96;98977.41;5096723;28;20440;-45
2020/12/13 02:33:31;;;;;;;88.80;37.72;;;;;;;2.78;78.67;98980.00;5096993;28;20048;-46
2020/12/13 02:35:58;;;;;;;77.75;35.47;;;;;;;2.85;78.20;98979.94;5079278;28;20040;-46
2020/12/13 02:38:25;;;;;;;82.22;34.08;;;;;;;2.87;78.25;98978.22;5096641;28;20455;-46
2020/12/13 02:40:51;;;;;;;93.18;38.03;;;;;;;2.87;78.12;98980.81;5096859;28;20140;-46
2020/12/13 02:43:17;;;;;;;88.43;39.00;;;;;;;2.79;78.02;98983.44;5096881;28;20487;-46
2020/12/13 02:45:42;;;;;;;92.30;39.28;;;;;;;2.81;78.35;98987.72;5097169;28;20055;-46
2020/12/13 02:48:08;;;;;;;92.68;37.08;;;;;;;2.87;78.08;98991.16;5095963;28;20325;-46
2020/12/13 02:50:34;;;;;;;82.07;36.05;;;;;;;2.88;77.91;98988.53;5096716;28;20384;-46
2020/12/13 02:53:00;;;;;;;88.28;38.65;;;;;;;2.91;77.69;98985.09;5096308;28;20334;-46
2020/12/13 02:55:25;;;;;;;87.10;37.50;;;;;;;2.92;77.88;98992.81;5095673;28;20048;-46
2020/12/13 02:57:51;;;;;;;95.28;37.20;;;;;;;2.91;77.82;98995.44;5095467;28;20077;-46
2020/12/13 03:00:17;;;;;;;88.28;38.10;;;;;;;2.94;77.63;98995.41;5096592;28;20101;-46
2020/12/13 03:02:43;;;;;;;89.63;38.80;;;;;;;2.89;77.65;98990.25;5095467;28;20120;-46
2020/12/13 03:05:09;;;;;;;79.97;34.63;;;;;;;2.90;77.62;98989.41;5096488;28;20085;-46
2020/12/13 03:07:35;;;;;;;90.97;39.58;;;;;;;2.88;77.64;99000.63;5096154;28;20503;-46
2020/12/13 03:10:01;;;;;;;92.40;38.42;;;;;;;2.87;77.98;98991.16;5096037;28;20039;-46
2020/12/13 03:12:26;;;;;;;80.50;35.45;;;;;;;2.92;77.92;98990.22;5096150;28;20040;-46
2020/12/13 03:14:55;;;;;;;79.88;37.13;;;;;;;2.91;77.63;98991.13;5095568;28;20052;-46
2020/12/13 03:17:21;;;;;;;91.72;38.80;;;;;;;2.90;77.78;98998.91;5095168;28;20181;-46
2020/12/13 03:19:47;;;;;;;88.00;37.65;;;;;;;2.92;77.66;98999.72;5096359;28;20058;-46
2020/12/13 03:22:13;;;;;;;89.93;39.78;;;;;;;2.87;77.80;98994.59;5096140;28;20052;-46
2020/12/13 03:24:39;;;;;;;89.90;38.83;;;;;;;2.90;77.69;98997.16;5096021;28;20121;-46
2020/12/13 03:27:05;;;;;;;91.35;37.85;;;;;;;2.90;77.73;98996.31;5095464;28;20054;-46
2020/12/13 03:29:30;;;;;;;84.45;38.20;;;;;;;2.91;77.49;99001.47;5096022;28;20169;-46
2020/12/13 03:31:56;;;;;;;92.93;39.67;;;;;;;2.91;77.64;99001.47;5096174;28;20052;-46
2020/12/13 03:34:22;;;;;;;94.78;40.78;;;;;;;2.88;77.52;99005.78;5095991;28;20474;-46
2020/12/13 03:36:48;;;;;;;89.93;37.22;;;;;;;2.91;77.70;99010.94;5098695;28;20040;-46
2020/12/13 03:39:13;;;;;;;94.70;40.38;;;;;;;2.90;77.65;99010.09;5099239;28;20051;-46
2020/12/13 03:41:39;;;;;;;93.82;39.70;;;;;;;2.92;77.48;99007.47;5099900;28;20055;-46
2020/12/13 03:44:05;;;;;;;97.72;42.33;;;;;;;2.89;77.34;99013.53;5099984;28;20036;-46
2020/12/13 03:46:31;;;;;;;106.15;45.45;;;;;;;2.87;77.59;99010.13;5099953;28;20040;-46
2020/12/13 03:48:57;;;;;;;103.78;44.75;;;;;;;2.87;77.36;99014.44;5100484;28;20070;-46
2020/12/13 03:51:22;;;;;;;98.63;43.65;;;;;;;2.78;77.47;99016.19;5100109;28;20048;-46
2020/12/13 03:53:48;;;;;;;102.35;43.75;;;;;;;2.77;77.95;99017.06;5099853;28;20368;-46
2020/12/13 03:56:14;;;;;;;97.53;42.97;;;;;;;2.79;77.78;99017.94;5099677;28;20079;-46
2020/12/13 03:58:39;;;;;;;102.97;44.25;;;;;;;2.79;77.78;99022.22;5099653;28;20047;-46
2020/12/13 04:01:05;;;;;;;102.70;43.03;;;;;;;2.79;77.82;99024.81;5099055;28;20044;-46
2020/12/13 04:03:31;;;;;;;104.28;44.47;;;;;;;2.78;78.09;99031.72;5099756;28;20056;-46
2020/12/13 04:05:57;;;;;;;103.70;43.60;;;;;;;2.81;77.81;99020.50;5100346;28;20100;-46
2020/12/13 04:08:23;;;;;;;100.45;41.97;;;;;;;2.77;77.88;99019.66;5099582;28;20047;-46
2020/12/13 04:10:49;;;;;;;103.57;43.78;;;;;;;2.85;77.77;99023.91;5099501;28;20075;-45
2020/12/13 04:13:14;;;;;;;96.70;39.60;;;;;;;2.81;77.62;99018.75;5099688;28;20047;-46
2020/12/13 04:15:40;;;;;;;102.88;44.75;;;;;;;2.78;77.84;99023.97;5099241;28;20044;-45
2020/12/13 04:18:06;;;;;;;96.13;40.85;;;;;;;2.84;77.79;99017.03;5099242;28;20078;-46
2020/12/13 04:20:32;;;;;;;105.10;42.10;;;;;;;2.83;77.71;99030.81;5099145;28;20051;-45
2020/12/13 04:22:58;;;;;;;101.57;42.97;;;;;;;2.81;77.93;99030.84;5099295;28;20044;-46
2020/12/13 04:25:24;;;;;;;126.63;50.50;;;;;;;2.77;77.98;99030.00;5100008;28;20385;-46
2020/12/13 04:27:49;;;;;;;112.95;48.25;;;;;;;2.85;77.57;99035.13;5099218;28;20036;-46
2020/12/13 04:30:15;;;;;;;97.70;44.05;;;;;;;2.84;77.75;99035.16;5099217;28;20044;-46
2020/12/13 04:32:41;;;;;;;165.30;60.08;;;;;;;2.81;77.97;99036.00;5098537;28;20313;-46
2020/12/13 04:35:07;;;;;;;125.07;50.75;;;;;;;2.84;78.00;99040.31;5098427;28;20055;-46
2020/12/13 04:37:33;;;;;;;113.00;45.75;;;;;;;2.87;77.70;99042.88;5098859;28;20105;-46
2020/12/13 04:40:00;;;;;;;131.93;54.08;;;;;;;2.77;78.04;99035.19;5099178;28;20052;-46
2020/12/13 04:42:26;;;;;;;126.72;52.35;;;;;;;2.85;77.89;99036.84;5098277;28;20099;-46
2020/12/13 04:44:52;;;;;;;112.57;48.90;;;;;;;2.86;77.71;99042.03;5098225;28;20070;-46
2020/12/13 04:47:18;;;;;;;109.35;44.30;;;;;;;2.89;77.84;99051.47;5097694;28;20097;-46
2020/12/13 04:49:49;;;;;;;104.60;43.30;;;;;;;2.92;77.57;99051.47;5098941;28;20083;-46
2020/12/13 04:52:14;;;;;;;109.80;47.53;;;;;;;2.84;77.82;99050.66;5098956;28;20101;-46
2020/12/13 04:54:47;;;;;;;122.38;49.60;;;;;;;2.87;77.77;99053.22;5098873;28;20063;-46
2020/12/13 04:57:13;;;;;;;116.07;46.55;;;;;;;2.84;77.93;99055.84;5099150;28;20131;-46
2020/12/13 04:59:39;;;;;;;105.47;44.08;;;;;;;2.88;77.55;99054.94;5097630;28;20094;-46
2020/12/13 05:02:05;;;;;;;108.30;46.25;;;;;;;2.87;77.57;99058.41;5098369;28;20098;-45
2020/12/13 05:04:32;;;;;;;151.27;63.20;;;;;;;2.66;78.38;99054.19;5098295;28;20048;-45
2020/12/13 05:06:58;;;;;;;127.80;55.03;;;;;;;2.81;78.41;99061.88;5098706;28;20040;-46
2020/12/13 05:09:24;;;;;;;144.40;59.47;;;;;;;2.80;78.42;99068.78;5098554;28;20139;-46
2020/12/13 05:11:49;;;;;;;161.00;66.10;;;;;;;2.80;78.20;99062.75;5098331;28;20366;-46
2020/12/13 05:14:15;;;;;;;143.93;60.05;;;;;;;2.83;78.25;99065.34;5098199;28;20048;-46
2020/12/13 05:16:41;;;;;;;126.70;53.38;;;;;;;2.87;78.04;99061.00;5098411;28;20044;-46
2020/12/13 05:19:07;;;;;;;136.32;55.53;;;;;;;2.88;77.82;99063.56;5098196;28;20062;-46
2020/12/13 05:21:34;;;;;;;114.78;49.47;;;;;;;2.85;77.91;99063.56;5097235;28;20469;-46
2020/12/13 05:24:03;;;;;;;108.53;46.60;;;;;;;2.92;77.65;99069.56;5080510;28;20055;-46
2020/12/13 05:26:29;;;;;;;119.53;48.35;;;;;;;2.91;77.44;99073.03;5097877;28;20462;-46
2020/12/13 05:28:56;;;;;;;111.30;46.03;;;;;;;2.80;77.81;99073.97;5097971;28;20040;-46
2020/12/13 05:31:23;;;;;;;103.18;44.40;;;;;;;2.85;78.01;99076.50;5097383;28;20039;-46
2020/12/13 05:33:52;;;;;;;116.38;47.88;;;;;;;2.88;77.68;99073.06;5097890;28;20040;-46
2020/12/13 05:36:18;;;;;;;113.75;46.83;;;;;;;2.90;77.84;99076.50;5098010;28;20040;-46
2020/12/13 05:38:44;;;;;;;111.93;45.38;;;;;;;2.85;77.69;99076.50;5098009;28;20044;-46
2020/12/13 05:41:11;;;;;;;113.30;46.33;;;;;;;2.86;77.57;99079.94;5097744;28;20436;-46
2020/12/13 05:43:47;;;;;;;117.18;49.92;;;;;;;2.79;77.69;99087.78;5097111;28;20123;-46
2020/12/13 05:51:40;;;;;;;127.03;49.63;;;;;;;2.87;77.55;99090.31;5096564;28;20131;-45
2020/12/13 05:54:22;;;;;;;108.00;45.80;;;;;;;2.79;77.70;99089.47;5080146;28;20108;-45
2020/12/13 05:56:51;;;;;;;110.05;45.95;;;;;;;2.78;77.61;99085.16;5096902;28;20287;-46
2020/12/13 05:59:17;;;;;;;112.53;46.88;;;;;;;2.76;77.64;99100.72;5097385;28;20044;-46
2020/12/13 06:01:44;;;;;;;121.45;48.53;;;;;;;2.78;77.81;99106.72;5096741;28;20055;-46
2020/12/13 06:04:13;;;;;;;100.60;42.58;;;;;;;2.76;77.85;99105.88;5097168;28;20056;-46
2020/12/13 06:06:41;;;;;;;104.47;44.33;;;;;;;2.73;78.08;99103.31;5080121;28;20063;-46
2020/12/13 06:09:13;;;;;;;114.55;48.80;;;;;;;2.53;78.92;99111.13;5097425;28;20051;-46
2020/12/13 06:11:47;;;;;;;107.20;46.08;;;;;;;2.69;78.88;99104.16;5096318;28;20079;-46
2020/12/13 06:14:21;;;;;;;106.50;46.90;;;;;;;2.75;78.30;99113.63;5097131;28;20066;-46
2020/12/13 06:16:47;;;;;;;122.78;50.72;;;;;;;2.65;78.53;99107.66;5097069;28;20039;-46
2020/12/13 06:19:24;;;;;;;117.57;50.85;;;;;;;2.78;78.14;99111.03;5097244;28;20121;-46
2020/12/13 06:21:50;;;;;;;106.00;44.60;;;;;;;2.76;78.22;99115.34;5079742;28;20044;-46
2020/12/13 06:24:16;;;;;;;99.90;43.47;;;;;;;2.77;78.04;99117.94;5097189;28;20044;-46
2020/12/13 06:26:42;;;;;;;119.53;48.08;;;;;;;2.67;78.19;99120.59;5097054;28;20047;-46
2020/12/13 06:29:08;;;;;;;120.05;47.15;;;;;;;2.75;78.08;99119.66;5079133;28;20048;-46
2020/12/13 06:31:35;;;;;;;112.22;46.20;;;;;;;2.72;78.13;99121.41;5095887;28;20040;-46
2020/12/13 06:34:01;;;;;;;116.22;49.90;;;;;;;2.68;78.59;99122.28;5096712;28;20054;-46
2020/12/13 06:36:26;;;;;;;118.75;49.13;;;;;;;2.77;78.17;99124.84;5096713;28;20055;-46
2020/12/13 06:38:54;;;;;;;108.32;46.33;;;;;;;2.71;78.57;99128.31;5096929;28;20048;-46
2020/12/13 06:41:27;;;;;;;102.35;45.00;;;;;;;2.76;78.30;99128.28;5096759;28;20120;-46
2020/12/13 06:44:06;;;;;;;113.70;46.78;;;;;;;2.74;78.29;99130.03;5096028;28;20052;-46
2020/12/13 06:46:32;;;;;;;123.55;49.42;;;;;;;2.79;78.15;99138.59;5096547;28;20444;-46
2020/12/13 06:48:58;;;;;;;100.60;42.85;;;;;;;2.78;78.38;99137.75;5096798;28;20067;-46
2020/12/13 06:51:36;;;;;;;111.28;46.83;;;;;;;2.82;78.07;99136.00;5096765;28;20048;-46
2020/12/13 06:54:12;;;;;;;121.78;46.42;;;;;;;2.85;78.16;99143.75;5096438;28;20345;-46
2020/12/13 06:56:39;;;;;;;105.20;44.88;;;;;;;2.86;77.96;99145.50;5095782;28;20091;-46
2020/12/13 06:59:06;;;;;;;117.88;46.90;;;;;;;2.84;77.88;99143.78;5096580;28;20048;-46
2020/12/13 07:01:34;;;;;;;118.28;50.08;;;;;;;2.79;78.04;99149.84;5096687;28;20109;-46
2020/12/13 07:04:21;;;;;;;120.75;51.45;;;;;;;2.78;77.88;99150.69;5096221;28;20060;-46
2020/12/13 07:06:50;;;;;;;115.25;47.65;;;;;;;2.81;78.18;99155.84;5096919;28;20040;-46
2020/12/13 07:09:16;;;;;;;105.88;46.00;;;;;;;2.72;78.57;99155.03;5096496;28;20048;-46
2020/12/13 07:11:43;;;;;;;117.63;46.65;;;;;;;2.79;78.22;99164.47;5078027;28;20394;-46
2020/12/13 07:14:11;;;;;;;117.72;48.28;;;;;;;2.80;78.11;99158.47;5096651;28;20039;-46
2020/12/13 07:16:40;;;;;;;116.85;49.35;;;;;;;2.81;78.34;99165.34;5095429;28;20379;-46
2020/12/13 07:19:07;;;;;;;108.68;49.38;;;;;;;2.72;78.13;99176.56;5095239;28;20440;-45
2020/12/13 07:21:33;;;;;;;103.50;44.83;;;;;;;2.67;78.86;99186.09;5095861;28;20036;-46
2020/12/13 07:24:00;;;;;;;100.38;43.28;;;;;;;2.79;78.86;99187.75;5095223;28;20051;-46
2020/12/13 07:26:27;;;;;;;107.30;46.70;;;;;;;2.83;78.48;99193.78;5096313;28;20341;-46
2020/12/13 07:28:54;;;;;;;111.35;48.70;;;;;;;2.86;78.74;99196.34;5095407;28;20056;-46
2020/12/13 07:31:20;;;;;;;139.18;63.17;;;;;;;2.80;78.83;99202.44;5095212;28;20052;-46
2020/12/13 07:33:46;;;;;;;126.80;58.00;;;;;;;2.91;79.07;99202.38;5096109;28;20063;-46
2020/12/13 07:36:12;;;;;;;140.43;62.15;;;;;;;2.93;78.61;99193.75;5095781;28;20044;-46
2020/12/13 07:38:41;;;;;;;159.15;70.80;;;;;;;2.75;78.50;99192.06;5095925;28;20052;-46
2020/12/13 07:41:20;;;;;;;127.03;55.13;;;;;;;2.89;78.78;99199.78;5061716;28;20040;-46
2020/12/13 07:44:03;;;;;;;100.05;45.00;;;;;;;3.02;78.54;99204.06;5095891;28;20101;-46
2020/12/13 07:46:30;;;;;;;107.90;48.05;;;;;;;3.09;78.47;99204.91;5096247;28;20074;-46
2020/12/13 07:49:06;;;;;;;138.38;62.17;;;;;;;3.16;78.25;99211.75;5095880;28;20048;-46
2020/12/13 07:51:32;;;;;;;114.80;53.58;;;;;;;3.19;77.76;99210.91;5095772;28;20047;-46
2020/12/13 07:54:11;;;;;;;110.97;48.92;;;;;;;3.21;77.71;99206.56;5095867;28;20115;-46
2020/12/13 07:56:36;;;;;;;120.15;50.38;;;;;;;3.30;77.69;99210.84;5094867;28;20055;-46
2020/12/13 07:59:16;;;;;;;168.18;71.50;;;;;;;3.33;77.18;99219.44;5094944;28;20040;-46
2020/12/13 08:01:43;;;;;;;238.25;89.38;;;;;;;3.32;77.35;99219.47;5095246;28;20450;-46
2020/12/13 08:04:09;;;;;;;190.98;76.13;;;;;;;3.32;77.13;99219.47;5094684;28;20082;-46
2020/12/13 08:06:35;;;;;;;161.13;72.55;;;;;;;3.31;77.27;99222.91;5096235;28;20412;-46
2020/12/13 08:09:06;;;;;;;137.77;59.83;;;;;;;3.33;77.10;99223.75;5095766;28;20036;-46
2020/12/13 08:11:32;;;;;;;128.52;54.30;;;;;;;3.21;77.30;99220.34;5095627;28;20348;-46
2020/12/13 08:13:58;;;;;;;128.73;54.90;;;;;;;3.25;77.58;99226.38;5095032;28;20048;-46
2020/12/13 08:16:24;;;;;;;116.13;53.50;;;;;;;3.21;77.67;99230.69;5095556;28;20070;-46
2020/12/13 08:18:51;;;;;;;135.98;56.33;;;;;;;3.31;77.71;99231.53;5095744;28;20075;-46
2020/12/13 08:21:36;;;;;;;132.70;66.60;;;;;;;3.30;77.25;99231.53;5095759;28;20101;-46
2020/12/13 08:24:03;;;;;;;127.30;59.70;;;;;;;3.27;77.47;99237.59;5098700;28;20052;-46
2020/12/13 08:26:28;;;;;;;120.40;53.05;;;;;;;3.32;77.67;99232.41;5099513;28;20044;-46
2020/12/13 08:28:54;;;;;;;141.60;66.30;;;;;;;3.38;77.18;99230.66;5098243;28;20347;-46
2020/12/13 08:31:24;;;;;;;146.27;67.78;;;;;;;3.42;77.03;99231.50;5098400;28;20082;-46
2020/12/13 08:34:07;;;;;;;139.02;64.05;;;;;;;3.44;76.86;99232.31;5098503;28;20048;-46
2020/12/13 08:36:34;;;;;;;143.85;59.78;;;;;;;3.41;76.99;99240.09;5099263;28;20345;-46
2020/12/13 08:39:01;;;;;;;135.38;56.78;;;;;;;3.48;77.04;99242.66;5098314;28;20139;-53
2020/12/13 08:41:27;;;;;;;163.45;73.45;;;;;;;3.55;76.97;99248.69;5098967;28;20046;-53
2020/12/13 08:43:52;;;;;;;250.57;113.70;;;;;;;3.56;76.93;99254.72;5098818;28;20048;-54
2020/12/13 08:46:41;;;;;;;193.75;87.72;;;;;;;3.60;76.64;99262.44;5099117;28;20044;-53
2020/12/13 08:49:07;;;;;;;168.20;75.20;;;;;;;3.62;77.07;99260.72;5098825;28;20353;-54
2020/12/13 08:51:32;;;;;;;152.93;68.03;;;;;;;3.68;76.95;99262.41;5098618;28;20106;-53
2020/12/13 08:54:03;;;;;;;170.10;69.45;;;;;;;3.74;76.83;99264.97;5097788;28;20058;-53
2020/12/13 08:56:36;;;;;;;194.18;81.13;;;;;;;3.81;76.70;99260.63;5099148;28;20482;-53
2020/12/13 08:59:03;;;;;;;144.68;62.00;;;;;;;3.82;76.44;99260.59;5098817;28;20105;-53
2020/12/13 09:01:34;;;;;;;115.68;53.15;;;;;;;3.84;76.43;99260.59;5098496;28;20062;-53
2020/12/13 09:04:00;;;;;;;113.25;51.38;;;;;;;3.87;76.41;99269.22;5097466;28;20496;-54
2020/12/13 09:06:30;;;;;;;108.90;52.38;;;;;;;3.88;76.01;99270.91;5098388;28;20048;-54
2020/12/13 09:09:13;;;;;;;105.85;49.75;;;;;;;3.87;75.61;99273.53;5098372;28;20044;-53
2020/12/13 09:11:39;;;;;;;109.32;50.10;;;;;;;3.81;75.92;99274.41;5097697;28;20234;-53
2020/12/13 09:14:05;;;;;;;112.03;48.10;;;;;;;3.87;76.12;99271.78;5099129;28;20048;-53
2020/12/13 09:16:32;;;;;;;99.80;44.92;;;;;;;3.96;76.08;99276.03;5098153;28;20055;-53
2020/12/13 09:19:19;;;;;;;105.10;48.75;;;;;;;4.02;75.77;99269.97;5098293;28;20083;-53
2020/12/13 09:21:53;;;;;;;108.15;47.75;;;;;;;3.97;75.55;99268.28;5097342;28;20471;-53
2020/12/13 09:24:21;;;;;;;127.10;55.70;;;;;;;4.01;75.64;99271.69;5098449;28;20075;-53
2020/12/13 09:27:09;;;;;;;123.65;54.28;;;;;;;4.11;75.07;99273.34;5098339;28;20044;-53
2020/12/13 09:29:36;;;;;;;107.85;46.03;;;;;;;4.09;75.62;99279.41;5097505;28;20058;-54
2020/12/13 09:32:03;;;;;;;125.55;53.78;;;;;;;4.16;75.41;99279.38;5097852;28;20044;-53
2020/12/13 09:34:28;;;;;;;137.82;59.67;;;;;;;4.16;75.44;99278.47;5097624;28;20120;-54
2020/12/13 09:36:54;;;;;;;140.38;60.17;;;;;;;4.15;75.14;99276.78;5097027;28;20425;-46
2020/12/13 09:39:20;;;;;;;138.70;60.67;;;;;;;4.09;75.11;99282.00;5097198;28;20048;-46
2020/12/13 09:41:46;;;;;;;123.32;54.20;;;;;;;4.20;75.35;99280.19;5097731;28;20066;-46
2020/12/13 09:44:12;;;;;;;116.82;54.33;;;;;;;4.23;75.23;99282.78;5096857;28;20064;-46
2020/12/13 09:46:38;;;;;;;104.88;48.28;;;;;;;4.30;74.95;99281.00;5097943;28;20058;-46
2020/12/13 09:49:03;;;;;;;121.45;54.70;;;;;;;4.32;74.75;99284.41;5097887;28;20056;-46
2020/12/13 09:51:29;;;;;;;117.50;52.05;;;;;;;4.36;75.21;99286.97;5097378;28;20520;-46
2020/12/13 09:53:55;;;;;;;294.58;112.50;;;;;;;4.43;74.61;99277.41;5097828;28;20348;-46
2020/12/13 09:56:21;;;;;;;358.70;148.98;;;;;;;4.48;74.80;99290.34;5097405;28;20336;-46
2020/12/13 09:58:47;;;;;;;432.63;183.63;;;;;;;4.31;74.24;99288.75;5097655;28;20036;-46
2020/12/13 10:01:13;;;;;;;326.02;139.27;;;;;;;4.43;74.18;99293.84;5097444;28;20040;-46
2020/12/13 10:03:42;;;;;;;154.57;71.18;;;;;;;4.47;74.40;99294.66;5097252;28;20064;-46
2020/12/13 10:11:20;;;;;;;149.30;66.38;;;;;;;4.49;73.62;99295.53;5097161;28;20313;-54
2020/12/13 10:13:46;;;;;;;151.55;68.40;;;;;;;4.52;73.53;99290.31;5097401;28;20044;-54
2020/12/13 10:16:14;;;;;;;120.68;57.00;;;;;;;4.60;73.70;99291.09;5096939;28;20040;-53
2020/12/13 10:18:40;;;;;;;114.35;49.53;;;;;;;4.62;73.33;99291.94;5097022;28;20333;-54
2020/12/13 10:21:06;;;;;;;109.18;49.90;;;;;;;4.62;73.16;99291.94;5097041;28;20102;-54
2020/12/13 10:23:31;;;;;;;156.20;61.67;;;;;;;4.43;73.26;99292.97;5097248;28;20051;-46
2020/12/13 10:25:57;;;;;;;258.13;94.65;;;;;;;4.55;73.12;99289.41;5097182;28;20110;-46
2020/12/13 10:28:23;;;;;;;154.88;66.53;;;;;;;4.49;72.82;99285.16;5096623;28;20044;-46
2020/12/13 10:30:50;;;;;;;119.40;54.13;;;;;;;4.56;73.01;99279.03;5096706;28;20044;-46
2020/12/13 10:33:17;;;;;;;177.73;68.00;;;;;;;4.73;72.92;99278.88;5096224;28;20056;-46
2020/12/13 10:35:42;;;;;;;132.32;54.38;;;;;;;4.82;72.92;99278.78;5096643;28;20075;-46
2020/12/13 10:38:08;;;;;;;132.75;60.53;;;;;;;4.87;72.81;99281.31;5096626;28;20047;-46
2020/12/13 10:40:34;;;;;;;150.32;72.28;;;;;;;4.94;72.62;99280.41;5097254;28;20035;-46
2020/12/13 10:43:00;;;;;;;567.75;260.17;;;;;;;4.94;71.82;99285.59;5095621;28;20130;-46
2020/12/13 10:45:26;;;;;;;421.63;196.30;;;;;;;4.93;72.09;99286.44;5095141;28;20052;-46
2020/12/13 10:47:52;;;;;;;313.80;155.70;;;;;;;4.97;72.42;99287.25;5097296;28;20041;-46
2020/12/13 10:50:19;;;;;;;194.43;94.38;;;;;;;4.91;71.92;99283.03;5096540;28;20089;-46
2020/12/13 10:52:45;;;;;;;235.68;114.03;;;;;;;4.96;72.08;99280.38;5096396;28;20044;-46
2020/12/13 10:55:12;;;;;;;186.32;92.65;;;;;;;4.96;71.99;99278.63;5096746;28;20101;-46
2020/12/13 10:57:37;;;;;;;181.65;96.22;;;;;;;4.91;71.82;99278.69;5096589;28;20389;-46
2020/12/13 11:00:04;;;;;;;171.13;91.68;;;;;;;4.87;71.95;99279.56;5096419;28;20040;-46
2020/12/13 11:02:30;;;;;;;152.45;73.57;;;;;;;4.92;72.19;99274.34;5096205;28;20047;-47
2020/12/13 11:04:55;;;;;;;127.50;62.80;;;;;;;4.89;72.23;99277.84;5096104;28;20040;-46
2020/12/13 11:07:21;;;;;;;129.63;61.45;;;;;;;4.99;72.08;99281.19;5095440;28;20055;-46
2020/12/13 11:09:47;;;;;;;132.20;62.80;;;;;;;5.03;72.03;99285.47;5096435;28;20063;-46
2020/12/13 11:12:13;;;;;;;127.68;56.55;;;;;;;5.07;71.83;99281.97;5096074;28;20036;-46
2020/12/13 11:14:38;;;;;;;193.40;89.70;;;;;;;5.05;71.46;99280.28;5096819;28;20044;-46
2020/12/13 11:17:04;;;;;;;162.40;80.18;;;;;;;5.11;71.49;99283.66;5095303;28;20337;-47
2020/12/13 11:19:30;;;;;;;159.43;79.53;;;;;;;5.10;71.55;99287.13;5096450;28;20321;-46
2020/12/13 11:21:57;;;;;;;141.88;69.18;;;;;;;5.07;71.29;99286.28;5096332;28;20044;-46
2020/12/13 11:24:23;;;;;;;118.63;57.38;;;;;;;5.01;71.17;99289.84;5096274;28;20105;-46
2020/12/13 11:26:49;;;;;;;139.20;70.93;;;;;;;5.05;71.44;99294.09;5096023;28;20048;-47
2020/12/13 11:29:14;;;;;;;136.95;64.65;;;;;;;5.10;71.35;99291.44;5096142;28;20044;-46
2020/12/13 11:31:40;;;;;;;127.57;60.30;;;;;;;5.10;71.16;99287.13;5095975;28;20391;-46
2020/12/13 11:34:06;;;;;;;120.47;57.10;;;;;;;5.14;70.97;99298.34;5096590;28;20035;-46